Time;durP1;ratioP1;P1;durP2;ratioP2;P2;SDS_P1;SDS_P2;PMS_P1;PMS_P2;Temp;Humidity;BMP_temperature;BMP_pressure;BME280_temperature;BME280_humidity;BME280_pressure;Samples;Min_cycle;Max_cycle;Signal;HPM_P1;HPM_P2
2022/07/05 00:01:10;;;;;;;5.90;1.85;;;;;;;;;;5098359;28;20103;-77
2022/07/05 00:03:36;;;;;;;5.35;1.80;;;;;;;;;;5095922;28;20060;-76
2022/07/05 00:06:02;;;;;;;6.80;2.00;;;;;;;;;;5098737;28;20039;-76
2022/07/05 00:08:28;;;;;;;7.20;1.90;;;;;;;;;;5107774;28;20032;-76
2022/07/05 00:10:54;;;;;;;9.35;1.85;;;;;;;;;;5104976;28;20032;-76
2022/07/05 00:13:20;;;;;;;7.13;2.30;;;;;;;;;;5091345;28;20040;-76
2022/07/05 00:15:46;;;;;;;5.47;1.83;;;;;;;;;;5107087;28;20824;-77
2022/07/05 00:18:12;;;;;;;6.60;1.90;;;;;;;;;;5106520;28;20042;-76
2022/07/05 00:20:38;;;;;;;12.65;2.35;;;;;;;;;;5091707;28;20083;-76
2022/07/05 00:23:04;;;;;;;8.88;1.70;;;;;;;;;;5101438;28;20036;-76
2022/07/05 00:25:30;;;;;;;7.10;2.13;;;;;;;;;;5104241;28;20396;-76
2022/07/05 00:27:56;;;;;;;6.18;1.80;;;;;;;;;;5101658;28;20036;-76
2022/07/05 00:30:22;;;;;;;6.40;2.13;;;;;;;;;;5095125;28;20105;-77
2022/07/05 00:32:48;;;;;;;7.75;2.00;;;;;;;;;;5091936;28;20054;-77
2022/07/05 00:35:14;;;;;;;9.90;2.30;;;;;;;;;;5108987;28;20051;-76
2022/07/05 00:37:40;;;;;;;9.13;2.22;;;;;;;;;;5111055;28;20093;-76
2022/07/05 00:40:10;;;;;;;7.05;1.60;;;;;;;;;;5099262;28;20032;-76
2022/07/05 00:42:36;;;;;;;7.57;2.30;;;;;;;;;;5105334;28;20046;-76
2022/07/05 00:45:05;;;;;;;6.68;2.10;;;;;;;;;;5105407;28;20040;-77
2022/07/05 00:47:31;;;;;;;6.80;2.28;;;;;;;;;;5097538;28;20393;-76
2022/07/05 00:49:57;;;;;;;7.80;2.08;;;;;;;;;;5104700;28;20024;-76
2022/07/05 00:52:23;;;;;;;8.93;2.25;;;;;;;;;;5109475;28;20038;-76
2022/07/05 00:54:50;;;;;;;8.70;1.73;;;;;;;;;;5104241;28;20161;-76
2022/07/05 00:57:16;;;;;;;5.97;2.10;;;;;;;;;;5097244;28;20036;-76
2022/07/05 00:59:42;;;;;;;6.47;1.83;;;;;;;;;;5091940;28;20035;-76
2022/07/05 01:02:09;;;;;;;6.25;1.70;;;;;;;;;;5097843;28;20084;-76
2022/07/05 01:04:35;;;;;;;9.23;2.20;;;;;;;;;;5108553;28;20028;-76
2022/07/05 01:07:03;;;;;;;10.57;2.55;;;;;;;;;;5093408;28;20486;-76
2022/07/05 01:09:29;;;;;;;8.77;2.70;;;;;;;;;;5096196;28;20031;-76
2022/07/05 01:11:55;;;;;;;6.30;1.63;;;;;;;;;;5097736;28;20030;-75
2022/07/05 01:14:22;;;;;;;5.80;2.25;;;;;;;;;;5093808;28;20394;-76
2022/07/05 01:16:49;;;;;;;6.93;2.22;;;;;;;;;;5094469;28;20028;-76
2022/07/05 01:19:16;;;;;;;5.75;1.90;;;;;;;;;;5097583;28;20032;-76
2022/07/05 01:21:44;;;;;;;4.38;1.27;;;;;;;;;;5092125;28;20186;-76
2022/07/05 01:24:11;;;;;;;8.13;1.75;;;;;;;;;;5091173;28;20059;-76
2022/07/05 01:26:38;;;;;;;7.35;1.92;;;;;;;;;;5095650;28;20557;-76
2022/07/05 01:29:04;;;;;;;7.75;1.95;;;;;;;;;;5102908;28;20156;-76
2022/07/05 01:31:30;;;;;;;8.63;2.25;;;;;;;;;;5097065;28;20117;-76
2022/07/05 01:33:56;;;;;;;6.78;2.15;;;;;;;;;;5094064;28;20078;-76
2022/07/05 01:36:22;;;;;;;7.30;1.88;;;;;;;;;;5102203;28;20024;-76
2022/07/05 01:38:50;;;;;;;6.93;2.28;;;;;;;;;;5104357;28;20047;-76
2022/07/05 01:41:16;;;;;;;6.05;2.30;;;;;;;;;;5093560;28;20109;-76
2022/07/05 01:43:42;;;;;;;8.13;2.47;;;;;;;;;;5101672;28;20562;-76
2022/07/05 01:46:08;;;;;;;11.93;2.17;;;;;;;;;;5100206;28;20035;-76
2022/07/05 01:48:35;;;;;;;9.52;2.30;;;;;;;;;;5097092;28;20043;-76
2022/07/05 01:51:06;;;;;;;7.95;1.95;;;;;;;;;;5107143;28;20039;-77
2022/07/05 01:53:33;;;;;;;4.97;1.67;;;;;;;;;;5099494;28;20024;-76
2022/07/05 01:56:02;;;;;;;5.65;1.88;;;;;;;;;;5095042;28;20114;-76
2022/07/05 01:58:29;;;;;;;8.43;2.13;;;;;;;;;;5094037;28;20121;-76
2022/07/05 02:00:56;;;;;;;5.00;1.73;;;;;;;;;;5105222;28;20038;-76
2022/07/05 02:03:22;;;;;;;8.30;1.80;;;;;;;;;;5095993;28;20031;-76
2022/07/05 02:05:49;;;;;;;8.65;2.95;;;;;;;;;;5100274;28;20039;-76
2022/07/05 02:08:15;;;;;;;11.02;2.30;;;;;;;;;;5096210;28;20028;-76
2022/07/05 02:10:42;;;;;;;13.85;3.95;;;;;;;;;;5092620;28;20149;-76
2022/07/05 02:13:08;;;;;;;7.65;2.38;;;;;;;;;;5089192;28;20085;-76
2022/07/05 02:15:35;;;;;;;8.38;2.10;;;;;;;;;;5103011;28;20030;-76
2022/07/05 02:18:02;;;;;;;10.90;2.53;;;;;;;;;;5100590;28;20031;-76
2022/07/05 02:20:28;;;;;;;12.45;2.83;;;;;;;;;;5094881;28;20024;-76
2022/07/05 02:22:54;;;;;;;6.80;2.47;;;;;;;;;;5097126;28;20467;-76
2022/07/05 02:25:21;;;;;;;7.18;2.00;;;;;;;;;;5107200;28;20035;-76
2022/07/05 02:27:47;;;;;;;5.72;2.22;;;;;;;;;;5092491;28;20169;-76
2022/07/05 02:30:13;;;;;;;8.23;2.33;;;;;;;;;;5093420;28;20036;-76
2022/07/05 02:32:39;;;;;;;6.80;2.92;;;;;;;;;;5097173;28;20023;-76
2022/07/05 02:35:06;;;;;;;6.28;2.33;;;;;;;;;;5106023;28;20039;-76
2022/07/05 02:37:32;;;;;;;8.77;2.45;;;;;;;;;;5101437;28;20035;-76
2022/07/05 02:39:58;;;;;;;7.75;2.58;;;;;;;;;;5103119;28;20032;-76
2022/07/05 02:42:24;;;;;;;8.38;2.20;;;;;;;;;;5070513;28;20445;-76
2022/07/05 02:44:50;;;;;;;8.18;2.05;;;;;;;;;;5089870;28;20052;-76
2022/07/05 02:47:16;;;;;;;9.27;2.55;;;;;;;;;;5104812;28;20040;-76
2022/07/05 02:49:42;;;;;;;5.82;2.10;;;;;;;;;;5097333;28;20056;-76
2022/07/05 02:52:08;;;;;;;7.05;1.85;;;;;;;;;;5096575;28;20860;-76
2022/07/05 02:54:34;;;;;;;8.98;2.20;;;;;;;;;;5093043;28;20031;-76
2022/07/05 02:57:00;;;;;;;5.95;2.25;;;;;;;;;;5101921;28;20465;-76
2022/07/05 02:59:27;;;;;;;6.93;1.88;;;;;;;;;;5094686;28;20028;-77
2022/07/05 03:01:53;;;;;;;6.43;2.28;;;;;;;;;;5104874;28;20077;-76
2022/07/05 03:04:19;;;;;;;8.90;2.70;;;;;;;;;;5103688;28;20034;-76
2022/07/05 03:06:45;;;;;;;6.18;2.40;;;;;;;;;;5101237;28;20456;-76
2022/07/05 03:09:11;;;;;;;11.40;2.40;;;;;;;;;;5088171;28;20034;-76
2022/07/05 03:11:37;;;;;;;7.47;2.22;;;;;;;;;;5106306;28;20034;-77
2022/07/05 03:14:03;;;;;;;5.82;2.30;;;;;;;;;;5102572;28;20405;-76
2022/07/05 03:16:29;;;;;;;10.02;2.45;;;;;;;;;;5104115;28;20031;-76
2022/07/05 03:18:55;;;;;;;7.40;2.20;;;;;;;;;;5108381;28;20032;-76
2022/07/05 03:21:21;;;;;;;7.28;2.70;;;;;;;;;;5098131;28;20035;-76
2022/07/05 03:23:47;;;;;;;6.80;2.35;;;;;;;;;;5101592;28;20100;-77
2022/07/05 03:26:13;;;;;;;9.73;2.80;;;;;;;;;;5098986;28;20050;-76
2022/07/05 03:28:39;;;;;;;6.90;2.40;;;;;;;;;;5100930;28;20566;-76
2022/07/05 03:31:06;;;;;;;8.15;2.33;;;;;;;;;;5106356;28;20035;-77
2022/07/05 03:33:32;;;;;;;5.88;2.60;;;;;;;;;;5096562;28;20042;-76
2022/07/05 03:35:58;;;;;;;9.52;2.92;;;;;;;;;;5105684;28;20027;-76
2022/07/05 03:38:24;;;;;;;9.65;2.20;;;;;;;;;;5104078;28;20432;-77
2022/07/05 03:40:50;;;;;;;7.60;2.78;;;;;;;;;;5096177;28;20502;-77
2022/07/05 03:43:16;;;;;;;8.75;2.25;;;;;;;;;;5108337;28;20477;-76
2022/07/05 03:45:43;;;;;;;8.25;2.53;;;;;;;;;;5099584;28;20500;-78
2022/07/05 03:48:09;;;;;;;5.47;2.15;;;;;;;;;;5108471;28;20039;-78
2022/07/05 03:50:35;;;;;;;7.03;2.33;;;;;;;;;;5106162;28;20031;-78
2022/07/05 03:53:01;;;;;;;14.15;3.88;;;;;;;;;;5111520;28;20038;-78
2022/07/05 03:55:27;;;;;;;8.13;2.58;;;;;;;;;;5106349;28;20024;-78
2022/07/05 03:57:53;;;;;;;9.77;2.92;;;;;;;;;;5108126;28;20032;-78
2022/07/05 04:00:19;;;;;;;8.85;2.75;;;;;;;;;;5111431;28;20032;-78
2022/07/05 04:02:45;;;;;;;7.30;2.42;;;;;;;;;;5110047;28;20044;-78
2022/07/05 04:05:11;;;;;;;5.80;2.38;;;;;;;;;;5107494;28;20024;-78
2022/07/05 04:07:53;;;;;;;8.73;2.67;;;;;;;;;;5099884;28;20040;-78
2022/07/05 04:10:19;;;;;;;8.93;2.00;;;;;;;;;;5099542;28;20023;-78
2022/07/05 04:12:45;;;;;;;8.55;2.67;;;;;;;;;;5107434;28;20035;-78
2022/07/05 04:15:11;;;;;;;9.65;3.08;;;;;;;;;;5103511;28;20020;-78
2022/07/05 04:17:51;;;;;;;7.95;3.28;;;;;;;;;;5105866;28;20044;-78
2022/07/05 04:20:17;;;;;;;7.63;3.20;;;;;;;;;;5100352;28;20075;-78
2022/07/05 04:22:43;;;;;;;9.13;2.90;;;;;;;;;;5103676;28;20445;-78
2022/07/05 04:25:19;;;;;;;10.98;3.05;;;;;;;;;;5104745;28;20058;-78
2022/07/05 04:27:45;;;;;;;13.75;2.60;;;;;;;;;;5105845;28;20035;-78
2022/07/05 04:30:11;;;;;;;7.72;2.42;;;;;;;;;;5100755;28;20378;-78
2022/07/05 04:32:37;;;;;;;8.80;2.40;;;;;;;;;;5098430;28;20028;-78
2022/07/05 04:35:03;;;;;;;7.95;2.55;;;;;;;;;;5097188;28;20016;-78
2022/07/05 04:37:29;;;;;;;5.97;2.25;;;;;;;;;;5103808;28;20059;-78
2022/07/05 04:39:55;;;;;;;5.10;2.10;;;;;;;;;;5096450;28;20028;-78
2022/07/05 04:42:21;;;;;;;10.85;2.15;;;;;;;;;;5099113;28;20036;-78
2022/07/05 04:44:47;;;;;;;9.15;2.97;;;;;;;;;;5095507;28;20052;-76
2022/07/05 04:47:13;;;;;;;11.40;2.80;;;;;;;;;;5104283;28;20031;-76
2022/07/05 04:49:40;;;;;;;11.10;2.55;;;;;;;;;;5103015;28;20703;-76
2022/07/05 04:52:06;;;;;;;7.30;2.22;;;;;;;;;;5106507;28;20028;-76
2022/07/05 04:54:32;;;;;;;12.07;1.90;;;;;;;;;;5100983;28;20027;-76
2022/07/05 04:56:58;;;;;;;4.63;1.75;;;;;;;;;;5091950;28;20036;-76
2022/07/05 04:59:24;;;;;;;6.70;1.70;;;;;;;;;;5098935;28;20032;-76
2022/07/05 05:01:50;;;;;;;6.88;2.35;;;;;;;;;;5103458;28;20032;-77
2022/07/05 05:04:16;;;;;;;7.82;2.50;;;;;;;;;;5102586;28;20032;-76
2022/07/05 05:06:42;;;;;;;11.23;2.20;;;;;;;;;;5098815;28;20078;-76
2022/07/05 05:09:08;;;;;;;9.18;2.50;;;;;;;;;;5098377;28;20036;-76
2022/07/05 05:11:34;;;;;;;11.23;2.47;;;;;;;;;;5091382;28;20027;-76
2022/07/05 05:14:00;;;;;;;9.45;2.83;;;;;;;;;;5096671;28;20383;-76
2022/07/05 05:16:26;;;;;;;9.00;2.92;;;;;;;;;;5100342;28;20155;-76
2022/07/05 05:18:52;;;;;;;8.13;2.50;;;;;;;;;;5110693;28;20605;-76
2022/07/05 05:21:18;;;;;;;8.77;2.85;;;;;;;;;;5101394;28;20050;-76
2022/07/05 05:23:44;;;;;;;9.75;2.50;;;;;;;;;;5102232;27;20367;-76
2022/07/05 05:26:10;;;;;;;7.55;2.58;;;;;;;;;;5096757;27;20039;-76
2022/07/05 05:28:37;;;;;;;6.03;1.80;;;;;;;;;;5099504;28;20031;-76
2022/07/05 05:31:03;;;;;;;8.88;1.70;;;;;;;;;;5093073;28;20035;-76
2022/07/05 05:33:29;;;;;;;5.28;1.98;;;;;;;;;;5098285;28;20671;-76
2022/07/05 05:35:55;;;;;;;8.38;2.13;;;;;;;;;;5094805;28;20032;-76
2022/07/05 05:38:21;;;;;;;7.60;2.92;;;;;;;;;;5103616;28;20547;-76
2022/07/05 05:40:47;;;;;;;8.05;3.40;;;;;;;;;;5105597;28;20027;-76
2022/07/05 05:43:13;;;;;;;8.73;3.63;;;;;;;;;;5106252;27;20052;-76
2022/07/05 05:45:39;;;;;;;8.18;3.03;;;;;;;;;;5103439;28;20040;-76
2022/07/05 05:48:05;;;;;;;7.78;3.08;;;;;;;;;;5098840;28;20028;-76
2022/07/05 05:50:32;;;;;;;8.52;1.73;;;;;;;;;;5093388;28;20028;-76
2022/07/05 05:52:58;;;;;;;9.43;2.00;;;;;;;;;;5099188;28;20116;-76
2022/07/05 05:55:25;;;;;;;7.07;1.80;;;;;;;;;;5108604;28;20028;-76
2022/07/05 05:57:51;;;;;;;9.98;2.03;;;;;;;;;;5096838;28;20031;-76
2022/07/05 06:00:18;;;;;;;10.43;2.00;;;;;;;;;;5100944;28;20031;-76
2022/07/05 06:02:44;;;;;;;9.20;2.22;;;;;;;;;;5097677;28;20035;-76
2022/07/05 06:05:11;;;;;;;10.90;2.10;;;;;;;;;;5089963;28;20493;-77
2022/07/05 06:07:51;;;;;;;9.50;2.60;;;;;;;;;;5101091;28;20059;-77
2022/07/05 06:10:21;;;;;;;7.88;2.00;;;;;;;;;;5096097;28;20036;-76
2022/07/05 06:12:48;;;;;;;7.72;2.05;;;;;;;;;;5096802;28;20092;-76
2022/07/05 06:15:14;;;;;;;10.80;2.30;;;;;;;;;;5092065;28;20032;-76
2022/07/05 06:17:40;;;;;;;5.75;2.03;;;;;;;;;;5100179;28;20024;-76
2022/07/05 06:20:07;;;;;;;7.20;2.08;;;;;;;;;;5101057;28;20036;-76
2022/07/05 06:22:34;;;;;;;8.80;2.03;;;;;;;;;;5102602;28;20031;-77
2022/07/05 06:25:00;;;;;;;10.90;2.33;;;;;;;;;;5105484;28;20027;-76
2022/07/05 06:27:26;;;;;;;7.30;2.20;;;;;;;;;;5102977;28;20039;-77
2022/07/05 06:29:52;;;;;;;8.30;1.60;;;;;;;;;;5096291;28;20386;-76
2022/07/05 06:32:18;;;;;;;11.15;2.78;;;;;;;;;;5103041;28;20077;-77
2022/07/05 06:34:44;;;;;;;9.55;1.80;;;;;;;;;;5098732;28;20031;-77
2022/07/05 06:37:10;;;;;;;9.50;2.45;;;;;;;;;;5099153;28;20028;-77
2022/07/05 06:39:36;;;;;;;11.02;2.28;;;;;;;;;;5100626;28;20047;-76
2022/07/05 06:42:02;;;;;;;8.95;2.08;;;;;;;;;;5101650;28;20072;-76
2022/07/05 06:44:28;;;;;;;10.15;2.75;;;;;;;;;;5102407;28;20048;-76
2022/07/05 06:46:54;;;;;;;7.05;2.28;;;;;;;;;;5095460;28;20751;-76
2022/07/05 06:49:20;;;;;;;8.13;1.73;;;;;;;;;;5097523;28;20028;-76
2022/07/05 06:51:46;;;;;;;7.25;2.00;;;;;;;;;;5104807;28;20032;-76
2022/07/05 06:54:12;;;;;;;9.60;2.70;;;;;;;;;;5096043;28;20066;-76
2022/07/05 06:56:38;;;;;;;10.10;1.98;;;;;;;;;;5105214;28;20103;-76
2022/07/05 06:59:04;;;;;;;12.27;2.10;;;;;;;;;;5088082;28;20389;-76
2022/07/05 07:01:30;;;;;;;6.03;2.20;;;;;;;;;;5101861;28;20058;-79
2022/07/05 07:03:56;;;;;;;6.30;1.90;;;;;;;;;;5101466;28;20023;-78
2022/07/05 07:06:22;;;;;;;14.45;2.75;;;;;;;;;;5095577;28;20467;-78
2022/07/05 07:11:34;;;;;;;6.97;2.05;;;;;;;;;;5101606;28;20451;-76
2022/07/05 07:14:00;;;;;;;9.70;2.00;;;;;;;;;;5097102;28;20039;-76
2022/07/05 07:16:26;;;;;;;5.60;1.83;;;;;;;;;;5097885;28;20035;-77
2022/07/05 07:18:52;;;;;;;9.02;2.53;;;;;;;;;;5097276;28;20039;-76
2022/07/05 07:21:18;;;;;;;7.65;2.08;;;;;;;;;;5104982;28;20036;-77
2022/07/05 07:23:44;;;;;;;9.27;2.67;;;;;;;;;;5096268;28;20036;-76
2022/07/05 07:26:10;;;;;;;8.90;2.97;;;;;;;;;;5096518;28;20028;-77
2022/07/05 07:28:36;;;;;;;8.98;2.28;;;;;;;;;;5095137;28;20044;-76
2022/07/05 07:31:02;;;;;;;13.68;3.00;;;;;;;;;;5095685;28;20134;-77
2022/07/05 07:33:28;;;;;;;10.27;2.80;;;;;;;;;;5101090;28;20515;-77
2022/07/05 07:35:54;;;;;;;8.90;2.22;;;;;;;;;;5097064;28;20049;-76
2022/07/05 07:38:20;;;;;;;4.65;1.90;;;;;;;;;;5100261;28;20066;-76
2022/07/05 07:40:46;;;;;;;8.80;2.03;;;;;;;;;;5099571;28;20390;-76
2022/07/05 07:43:12;;;;;;;9.30;2.15;;;;;;;;;;5097911;28;20060;-76
2022/07/05 07:45:38;;;;;;;10.35;2.28;;;;;;;;;;5093063;28;20051;-76
2022/07/05 07:48:04;;;;;;;8.38;2.05;;;;;;;;;;5092626;28;20030;-77
2022/07/05 07:50:30;;;;;;;10.30;2.45;;;;;;;;;;5096966;28;20036;-76
2022/07/05 07:52:56;;;;;;;6.20;1.92;;;;;;;;;;5102940;28;20077;-76
2022/07/05 07:55:22;;;;;;;8.82;2.40;;;;;;;;;;5092427;28;20103;-76
2022/07/05 07:57:48;;;;;;;7.78;2.05;;;;;;;;;;5103111;28;20432;-76
2022/07/05 08:00:14;;;;;;;8.07;1.85;;;;;;;;;;5101231;28;20032;-77
2022/07/05 08:02:40;;;;;;;8.77;1.90;;;;;;;;;;5099400;28;20486;-76
2022/07/05 08:05:09;;;;;;;9.65;2.05;;;;;;;;;;5100394;28;20038;-77
2022/07/05 08:07:35;;;;;;;7.28;1.85;;;;;;;;;;5094400;28;20068;-77
2022/07/05 08:10:01;;;;;;;5.78;1.40;;;;;;;;;;5099621;28;20024;-77
2022/07/05 08:12:27;;;;;;;12.43;1.80;;;;;;;;;;5099850;28;20073;-77
2022/07/05 08:14:53;;;;;;;7.65;1.40;;;;;;;;;;5110614;28;20051;-77
2022/07/05 08:17:20;;;;;;;4.95;1.52;;;;;;;;;;5102984;28;20068;-77
2022/07/05 08:22:31;;;;;;;7.70;1.88;;;;;;;;;;5096528;28;20051;-77
2022/07/05 08:24:58;;;;;;;7.72;1.52;;;;;;;;;;5104963;28;20149;-77
2022/07/05 08:27:24;;;;;;;4.35;1.35;;;;;;;;;;5104979;28;20038;-77
2022/07/05 08:29:50;;;;;;;10.93;1.90;;;;;;;;;;5100208;28;20099;-77
2022/07/05 08:32:16;;;;;;;4.60;1.50;;;;;;;;;;5097261;28;20040;-77
2022/07/05 08:34:43;;;;;;;8.82;2.22;;;;;;;;;;5108843;28;20477;-77
2022/07/05 08:37:09;;;;;;;7.50;1.80;;;;;;;;;;5102003;28;20027;-77
2022/07/05 08:39:35;;;;;;;6.38;1.90;;;;;;;;;;5108933;28;20023;-76
2022/07/05 08:42:02;;;;;;;6.93;1.70;;;;;;;;;;5098733;28;20477;-77
2022/07/05 08:44:29;;;;;;;7.20;1.95;;;;;;;;;;5105154;28;20116;-77
2022/07/05 08:46:56;;;;;;;5.60;1.70;;;;;;;;;;5098213;28;20046;-76
2022/07/05 08:49:23;;;;;;;6.57;1.73;;;;;;;;;;5101540;28;20034;-77
2022/07/05 08:51:49;;;;;;;5.60;1.63;;;;;;;;;;5104988;28;20031;-77
2022/07/05 08:54:16;;;;;;;11.00;2.20;;;;;;;;;;5101986;28;20051;-77
2022/07/05 08:56:43;;;;;;;7.03;1.73;;;;;;;;;;5096307;28;20070;-77
2022/07/05 08:59:09;;;;;;;4.03;1.70;;;;;;;;;;5098675;28;20481;-76
2022/07/05 09:01:36;;;;;;;12.15;2.72;;;;;;;;;;5106787;28;20032;-77
2022/07/05 09:04:05;;;;;;;8.50;2.03;;;;;;;;;;5097539;28;20796;-77
2022/07/05 09:06:32;;;;;;;5.32;1.80;;;;;;;;;;5098682;28;20028;-76
2022/07/05 09:08:59;;;;;;;7.28;1.90;;;;;;;;;;5099400;28;20032;-77
2022/07/05 09:11:29;;;;;;;10.13;1.73;;;;;;;;;;5102528;28;20084;-77
2022/07/05 09:13:55;;;;;;;8.23;1.70;;;;;;;;;;5099309;28;20027;-77
2022/07/05 09:16:21;;;;;;;8.80;1.63;;;;;;;;;;5104252;28;20039;-76
2022/07/05 09:18:48;;;;;;;7.57;1.23;;;;;;;;;;5095399;28;20031;-77
2022/07/05 09:21:15;;;;;;;4.07;1.58;;;;;;;;;;5104349;28;20040;-77
2022/07/05 09:23:42;;;;;;;7.75;1.35;;;;;;;;;;5100899;28;20032;-76
2022/07/05 09:26:08;;;;;;;7.85;1.42;;;;;;;;;;5097948;28;20085;-77
2022/07/05 09:28:34;;;;;;;4.75;1.83;;;;;;;;;;5099307;28;20115;-77
2022/07/05 09:31:00;;;;;;;5.18;1.58;;;;;;;;;;5102641;28;20031;-77
2022/07/05 09:33:26;;;;;;;5.70;1.80;;;;;;;;;;5102355;28;20398;-76
2022/07/05 09:35:57;;;;;;;5.50;1.33;;;;;;;;;;5099655;28;20034;-76
2022/07/05 09:38:24;;;;;;;2.80;1.00;;;;;;;;;;5098576;28;20024;-77
2022/07/05 09:40:52;;;;;;;4.78;1.38;;;;;;;;;;5101500;28;20512;-77
2022/07/05 09:43:20;;;;;;;6.45;1.40;;;;;;;;;;5095878;28;20063;-77
2022/07/05 09:45:53;;;;;;;4.57;1.58;;;;;;;;;;5101903;28;20429;-77
2022/07/05 09:48:19;;;;;;;4.65;1.17;;;;;;;;;;5097034;28;20038;-76
2022/07/05 09:50:45;;;;;;;4.60;1.35;;;;;;;;;;5098792;28;20027;-77
2022/07/05 09:53:12;;;;;;;6.50;1.33;;;;;;;;;;5104653;28;20039;-77
2022/07/05 09:55:38;;;;;;;5.07;1.27;;;;;;;;;;5096889;28;20036;-77
2022/07/05 09:58:05;;;;;;;4.68;1.30;;;;;;;;;;5101629;28;20134;-77
2022/07/05 10:00:31;;;;;;;4.68;1.25;;;;;;;;;;5097473;28;20043;-77
2022/07/05 10:03:01;;;;;;;5.38;1.23;;;;;;;;;;5102739;28;20043;-77
2022/07/05 10:05:29;;;;;;;9.07;1.58;;;;;;;;;;5099788;28;20047;-77
2022/07/05 10:07:59;;;;;;;4.60;1.00;;;;;;;;;;5098060;28;20035;-77
2022/07/05 10:10:26;;;;;;;5.88;1.30;;;;;;;;;;5099296;28;20087;-77
2022/07/05 10:12:53;;;;;;;6.90;1.17;;;;;;;;;;5100335;28;20028;-77
2022/07/05 10:15:23;;;;;;;5.78;1.27;;;;;;;;;;5097996;28;20085;-77
2022/07/05 10:17:52;;;;;;;3.90;1.20;;;;;;;;;;5098589;28;20028;-77
2022/07/05 10:20:28;;;;;;;5.68;1.20;;;;;;;;;;5102537;28;20065;-76
2022/07/05 10:22:54;;;;;;;3.33;0.88;;;;;;;;;;5097220;28;20660;-77
2022/07/05 10:25:21;;;;;;;5.38;1.10;;;;;;;;;;5094190;28;20040;-77
2022/07/05 10:27:47;;;;;;;2.35;0.80;;;;;;;;;;5097116;28;20152;-77
2022/07/05 10:30:15;;;;;;;3.65;1.25;;;;;;;;;;5095070;28;20032;-76
2022/07/05 10:32:42;;;;;;;3.40;1.33;;;;;;;;;;5101263;28;20040;-77
2022/07/05 10:35:09;;;;;;;5.85;1.50;;;;;;;;;;5093695;28;20024;-77
2022/07/05 10:37:35;;;;;;;4.28;1.20;;;;;;;;;;5096239;28;20067;-77
2022/07/05 10:40:02;;;;;;;4.95;1.08;;;;;;;;;;5094712;28;20032;-77
2022/07/05 10:42:31;;;;;;;3.35;1.08;;;;;;;;;;5098525;28;20031;-77
2022/07/05 10:44:57;;;;;;;4.85;1.25;;;;;;;;;;5100483;28;20912;-76
2022/07/05 10:47:25;;;;;;;2.88;0.90;;;;;;;;;;5098006;28;20043;-77
2022/07/05 10:50:01;;;;;;;4.97;1.27;;;;;;;;;;5095518;28;20028;-77
2022/07/05 10:52:28;;;;;;;5.57;1.02;;;;;;;;;;5104505;28;20510;-77
2022/07/05 10:55:17;;;;;;;3.83;1.20;;;;;;;;;;5100883;28;20023;-77
2022/07/05 10:57:43;;;;;;;4.28;1.20;;;;;;;;;;5054547;28;20162;-77
2022/07/05 11:00:10;;;;;;;3.88;0.82;;;;;;;;;;5095614;28;20105;-77
2022/07/05 11:02:37;;;;;;;5.80;1.10;;;;;;;;;;5101084;28;20038;-77
2022/07/05 11:05:03;;;;;;;2.92;0.93;;;;;;;;;;5096037;28;20766;-77
2022/07/05 11:08:05;;;;;;;6.30;0.90;;;;;;;;;;5102911;28;20040;-77
2022/07/05 11:10:32;;;;;;;5.85;0.88;;;;;;;;;;5047345;28;20044;-77
2022/07/05 11:12:58;;;;;;;4.82;0.98;;;;;;;;;;5095314;28;20839;-77
2022/07/05 11:15:25;;;;;;;5.20;1.00;;;;;;;;;;5099266;28;20060;-77
2022/07/05 11:18:11;;;;;;;4.78;1.08;;;;;;;;;;5104483;28;20051;-77
2022/07/05 11:20:37;;;;;;;2.60;1.13;;;;;;;;;;5099902;28;20031;-77
2022/07/05 11:23:06;;;;;;;4.70;0.82;;;;;;;;;;5103821;28;20717;-77
2022/07/05 11:25:33;;;;;;;3.42;0.90;;;;;;;;;;5093493;28;20043;-77
2022/07/05 11:28:05;;;;;;;3.58;0.98;;;;;;;;;;5097416;28;20107;-77
2022/07/05 11:30:44;;;;;;;2.50;0.70;;;;;;;;;;5098738;28;20039;-77
2022/07/05 11:33:30;;;;;;;3.85;0.80;;;;;;;;;;5099212;28;20034;-77
2022/07/05 11:35:57;;;;;;;4.50;1.30;;;;;;;;;;5094878;28;20024;-77
2022/07/05 11:38:23;;;;;;;5.18;1.05;;;;;;;;;;5096864;28;20031;-77
2022/07/05 11:40:49;;;;;;;8.05;1.00;;;;;;;;;;5098514;28;20028;-77
2022/07/05 11:43:25;;;;;;;3.67;1.08;;;;;;;;;;5100960;28;20064;-77
2022/07/05 11:45:56;;;;;;;5.05;1.00;;;;;;;;;;5100817;28;20032;-77
2022/07/05 11:48:22;;;;;;;3.40;0.70;;;;;;;;;;5105900;28;20032;-77
2022/07/05 11:50:49;;;;;;;9.00;1.05;;;;;;;;;;5093376;28;20028;-77
2022/07/05 11:53:25;;;;;;;6.45;1.10;;;;;;;;;;5103704;28;20023;-76
2022/07/05 11:55:54;;;;;;;3.67;1.00;;;;;;;;;;5101460;28;20072;-77
2022/07/05 11:58:20;;;;;;;6.35;0.80;;;;;;;;;;5108749;28;20099;-77
2022/07/05 12:00:53;;;;;;;5.55;0.90;;;;;;;;;;5101707;28;20123;-77
2022/07/05 12:03:19;;;;;;;5.30;1.02;;;;;;;;;;5108940;28;20398;-77
2022/07/05 12:05:45;;;;;;;10.23;1.50;;;;;;;;;;5095628;28;20027;-77
2022/07/05 12:08:11;;;;;;;2.67;0.70;;;;;;;;;;5101094;28;20142;-77
2022/07/05 12:13:22;;;;;;;4.88;0.82;;;;;;;;;;5104142;28;20074;-77
2022/07/05 12:15:48;;;;;;;3.50;0.90;;;;;;;;;;5098529;28;20055;-77
2022/07/05 12:18:15;;;;;;;1.83;0.65;;;;;;;;;;5094893;28;20071;-77
2022/07/05 12:20:42;;;;;;;3.05;0.70;;;;;;;;;;5098897;28;20052;-77
2022/07/05 12:23:08;;;;;;;1.48;0.50;;;;;;;;;;5105835;28;20077;-77
2022/07/05 12:25:34;;;;;;;5.38;0.93;;;;;;;;;;5101695;28;20036;-77
2022/07/05 12:28:03;;;;;;;2.30;0.70;;;;;;;;;;5098677;28;20036;-77
2022/07/05 12:30:29;;;;;;;6.43;0.77;;;;;;;;;;5101442;28;20028;-77
2022/07/05 12:33:00;;;;;;;5.05;0.93;;;;;;;;;;5101325;28;20035;-77
2022/07/05 12:35:46;;;;;;;3.70;0.77;;;;;;;;;;5096090;28;20028;-76
2022/07/05 12:38:18;;;;;;;4.80;0.98;;;;;;;;;;5106655;28;20056;-76
2022/07/05 12:40:46;;;;;;;2.55;0.73;;;;;;;;;;5097468;28;20031;-77
2022/07/05 12:43:16;;;;;;;6.25;1.00;;;;;;;;;;5097880;28;20059;-77
2022/07/05 12:45:44;;;;;;;3.65;0.77;;;;;;;;;;5106751;28;20039;-76
2022/07/05 12:48:11;;;;;;;6.80;1.00;;;;;;;;;;5100246;28;20115;-76
2022/07/05 12:50:50;;;;;;;3.80;0.90;;;;;;;;;;5105589;28;20028;-77
2022/07/05 12:58:51;;;;;;;4.47;0.80;;;;;;;;;;5093497;28;20649;-77
2022/07/05 13:01:20;;;;;;;3.55;1.00;;;;;;;;;;5100826;28;20481;-76
2022/07/05 13:03:56;;;;;;;3.00;1.10;;;;;;;;;;5095718;28;20826;-77
2022/07/05 13:06:22;;;;;;;4.60;0.70;;;;;;;;;;5097542;28;20080;-77
2022/07/05 13:08:57;;;;;;;4.22;0.80;;;;;;;;;;5100376;28;20043;-76
2022/07/05 13:11:32;;;;;;;4.00;1.25;;;;;;;;;;5103423;28;20034;-77
2022/07/05 13:13:58;;;;;;;3.40;0.77;;;;;;;;;;5103202;28;20106;-77
2022/07/05 13:16:24;;;;;;;5.13;0.85;;;;;;;;;;5091871;28;20030;-77
2022/07/05 13:18:50;;;;;;;3.17;0.88;;;;;;;;;;5100530;28;20020;-77
2022/07/05 13:21:16;;;;;;;3.47;0.80;;;;;;;;;;5098948;28;20047;-77
2022/07/05 13:23:42;;;;;;;5.32;0.80;;;;;;;;;;5100016;28;20024;-77
2022/07/05 13:26:09;;;;;;;7.63;1.15;;;;;;;;;;5099262;28;20106;-77
2022/07/05 13:28:35;;;;;;;2.47;0.70;;;;;;;;;;5093289;28;20538;-77
2022/07/05 13:31:01;;;;;;;3.60;0.77;;;;;;;;;;5102749;28;20390;-77
2022/07/05 13:33:27;;;;;;;3.42;0.80;;;;;;;;;;5095926;28;20081;-77
2022/07/05 13:35:53;;;;;;;3.88;0.70;;;;;;;;;;5101708;28;20450;-77
2022/07/05 13:38:19;;;;;;;3.58;0.88;;;;;;;;;;5093143;28;20028;-77
2022/07/05 13:40:45;;;;;;;6.78;0.90;;;;;;;;;;5096656;28;20039;-77
2022/07/05 13:43:11;;;;;;;4.10;0.57;;;;;;;;;;5097587;28;20628;-77
2022/07/05 13:45:37;;;;;;;3.67;0.80;;;;;;;;;;5099218;28;20036;-77
2022/07/05 13:48:04;;;;;;;2.90;0.63;;;;;;;;;;5099754;28;20024;-77
2022/07/05 13:50:33;;;;;;;5.60;0.60;;;;;;;;;;5100244;28;20032;-77
2022/07/05 13:52:59;;;;;;;2.75;0.50;;;;;;;;;;5097894;28;20398;-77
2022/07/05 13:55:26;;;;;;;5.82;0.77;;;;;;;;;;5103540;28;20108;-77
2022/07/05 13:57:52;;;;;;;5.47;0.90;;;;;;;;;;5099927;28;20368;-77
2022/07/05 14:00:18;;;;;;;3.00;0.60;;;;;;;;;;5098433;28;20031;-77
2022/07/05 14:02:44;;;;;;;6.70;0.70;;;;;;;;;;5096225;28;20043;-77
2022/07/05 14:05:10;;;;;;;4.93;0.98;;;;;;;;;;5106077;28;20040;-77
2022/07/05 14:07:37;;;;;;;1.48;0.50;;;;;;;;;;5094909;28;20426;-77
2022/07/05 14:10:04;;;;;;;2.85;0.90;;;;;;;;;;5095918;28;20107;-77
2022/07/05 14:12:30;;;;;;;9.18;0.90;;;;;;;;;;5101637;28;20239;-77
2022/07/05 14:14:56;;;;;;;10.25;1.10;;;;;;;;;;5095584;28;20035;-77
2022/07/05 14:17:22;;;;;;;3.15;0.75;;;;;;;;;;5096837;28;20027;-76
2022/07/05 14:19:48;;;;;;;6.82;0.73;;;;;;;;;;5095708;28;20031;-77
2022/07/05 14:22:14;;;;;;;2.88;0.52;;;;;;;;;;5096507;28;20027;-77
2022/07/05 14:24:40;;;;;;;2.90;0.60;;;;;;;;;;5101773;28;20036;-77
2022/07/05 14:27:09;;;;;;;5.40;0.70;;;;;;;;;;5091692;28;20028;-77
2022/07/05 14:29:35;;;;;;;2.22;0.50;;;;;;;;;;5099077;28;20056;-77
2022/07/05 14:32:01;;;;;;;1.80;0.65;;;;;;;;;;5096485;28;20516;-77
2022/07/05 14:34:28;;;;;;;4.10;0.70;;;;;;;;;;5100514;28;20454;-77
2022/07/05 14:36:54;;;;;;;4.05;1.33;;;;;;;;;;5093989;28;20044;-77
2022/07/05 14:39:20;;;;;;;5.15;0.80;;;;;;;;;;5098517;28;20057;-77
2022/07/05 14:41:47;;;;;;;2.90;0.73;;;;;;;;;;5101023;28;20032;-77
2022/07/05 14:44:13;;;;;;;4.07;0.90;;;;;;;;;;5092204;28;20059;-77
2022/07/05 14:46:39;;;;;;;2.70;0.68;;;;;;;;;;5101239;28;20054;-77
2022/07/05 14:49:05;;;;;;;3.83;0.75;;;;;;;;;;5096692;28;20493;-77
2022/07/05 14:51:31;;;;;;;4.07;0.68;;;;;;;;;;5100740;28;20032;-77
2022/07/05 14:53:57;;;;;;;2.05;0.60;;;;;;;;;;5092170;28;20141;-77